createdAt,value
2019-03-23T00:00:41.246Z,11.18
2019-03-23T00:01:41.261Z,11.22
2019-03-23T00:02:41.231Z,11.15
2019-03-23T00:03:41.228Z,11.15
2019-03-23T00:04:41.236Z,11.10
2019-03-23T00:05:41.189Z,11.22
2019-03-23T00:06:41.180Z,11.07
2019-03-23T00:07:41.174Z,11.10
2019-03-23T00:08:41.163Z,11.04
2019-03-23T00:09:41.234Z,11.05
2019-03-23T00:10:41.136Z,10.99
2019-03-23T00:11:41.140Z,11.08
2019-03-23T00:12:41.113Z,10.96
2019-03-23T00:13:41.115Z,10.96
2019-03-23T00:14:41.092Z,10.97
2019-03-23T00:15:41.140Z,10.93
2019-03-23T00:16:41.070Z,10.93
2019-03-23T00:17:41.060Z,10.97
2019-03-23T00:18:41.093Z,10.90
2019-03-23T00:19:41.048Z,10.89
2019-03-23T00:20:41.078Z,10.84
2019-03-23T00:21:41.060Z,10.92
2019-03-23T00:22:41.013Z,10.89
2019-03-23T00:23:41.039Z,10.93
2019-03-23T00:24:41.046Z,10.89
2019-03-23T00:25:40.994Z,10.94
2019-03-23T00:26:40.994Z,10.84
2019-03-23T00:27:40.966Z,10.86
2019-03-23T00:28:40.955Z,10.82
2019-03-23T00:29:40.942Z,10.82
2019-03-23T00:30:40.959Z,10.86
2019-03-23T00:31:40.950Z,10.79
2019-03-23T00:32:40.902Z,10.86
2019-03-23T00:33:40.897Z,10.89
2019-03-23T00:34:40.881Z,10.82
2019-03-23T00:35:40.908Z,10.78
2019-03-23T00:36:41.899Z,10.84
2019-03-23T00:37:40.860Z,10.75
2019-03-23T00:38:40.844Z,10.76
2019-03-23T00:39:40.901Z,10.71
2019-03-23T00:40:40.817Z,10.74
2019-03-23T00:41:40.855Z,10.64
2019-03-23T00:42:40.796Z,10.72
2019-03-23T00:43:40.792Z,10.64
2019-03-23T00:44:40.773Z,10.57
2019-03-23T00:45:40.794Z,10.67
2019-03-23T00:46:40.761Z,10.61
2019-03-23T00:47:40.769Z,10.54
2019-03-23T00:48:40.734Z,10.53
2019-03-23T00:49:40.737Z,10.63
2019-03-23T00:50:40.711Z,10.60
2019-03-23T00:51:40.722Z,10.51
2019-03-23T00:52:40.772Z,10.59
2019-03-23T00:53:40.688Z,10.48
2019-03-23T00:54:40.680Z,10.42
2019-03-23T00:55:40.656Z,10.38
2019-03-23T00:56:40.652Z,10.30
2019-03-23T00:57:40.678Z,10.23
2019-03-23T00:58:40.654Z,10.25
2019-03-23T00:59:40.607Z,10.31
2019-03-23T01:00:40.599Z,10.19
2019-03-23T01:01:40.606Z,10.05
2019-03-23T01:02:41.842Z,9.98
2019-03-23T01:03:40.618Z,10.01
2019-03-23T01:04:40.557Z,9.89
2019-03-23T01:05:40.556Z,9.97
2019-03-23T01:06:40.581Z,9.92
2019-03-23T01:07:40.541Z,9.95
2019-03-23T01:08:40.541Z,9.94
2019-03-23T01:09:40.537Z,9.87
2019-03-23T01:10:40.491Z,9.92
2019-03-23T01:11:40.491Z,9.92
2019-03-23T01:12:40.474Z,9.87
2019-03-23T01:13:40.464Z,9.87
2019-03-23T01:14:40.497Z,9.84
2019-03-23T01:15:40.443Z,9.86
2019-03-23T01:16:40.432Z,9.82
2019-03-23T01:17:40.420Z,9.87
2019-03-23T01:18:40.409Z,9.83
2019-03-23T01:19:40.435Z,9.74
2019-03-23T01:20:49.286Z,9.74
2019-03-23T01:21:41.369Z,9.76
2019-03-23T01:22:40.361Z,9.79
2019-03-23T01:23:40.363Z,9.77
2019-03-23T01:24:40.390Z,9.76
2019-03-23T01:25:40.819Z,9.68
2019-03-23T01:26:40.319Z,9.69
2019-03-23T01:27:40.323Z,9.72
2019-03-23T01:28:40.307Z,9.68
2019-03-23T01:29:40.297Z,9.68
2019-03-23T01:30:40.275Z,9.64
2019-03-23T01:31:40.325Z,9.56
2019-03-23T01:32:40.781Z,9.65
2019-03-23T01:33:40.241Z,9.58
2019-03-23T01:34:40.233Z,9.56
2019-03-23T01:35:40.245Z,9.59
2019-03-23T01:36:40.243Z,9.58
2019-03-23T01:37:40.203Z,9.56
2019-03-23T01:38:40.259Z,9.56
2019-03-23T01:39:40.175Z,9.56
2019-03-23T01:40:40.210Z,9.58
2019-03-23T01:41:40.167Z,9.56
2019-03-23T01:42:40.161Z,9.51
2019-03-23T01:43:40.129Z,9.64
2019-03-23T01:44:40.138Z,9.65
2019-03-23T01:45:40.195Z,9.62
2019-03-23T01:46:40.096Z,9.54
2019-03-23T01:47:40.136Z,9.44
2019-03-23T01:48:40.075Z,9.46
2019-03-23T01:49:40.065Z,9.44
2019-03-23T01:50:40.053Z,9.40
2019-03-23T01:51:40.041Z,9.28
2019-03-23T01:52:40.038Z,9.29
2019-03-23T01:53:40.177Z,9.29
2019-03-23T01:54:40.007Z,9.29
2019-03-23T01:55:40.000Z,9.29
2019-03-23T01:56:39.994Z,9.26
2019-03-23T01:57:39.973Z,9.10
2019-03-23T01:58:40.032Z,9.10
2019-03-23T01:59:39.971Z,9.16
2019-03-23T02:00:40.002Z,9.16
2019-03-23T02:01:39.931Z,9.02
2019-03-23T02:02:39.950Z,8.99
2019-03-23T02:03:39.935Z,9.11
2019-03-23T02:04:39.921Z,9.03
2019-03-23T02:05:39.888Z,9.14
2019-03-23T02:06:39.884Z,9.10
2019-03-23T02:07:39.867Z,9.13
2019-03-23T02:08:39.855Z,9.11
2019-03-23T02:09:39.862Z,9.18
2019-03-23T02:10:41.862Z,9.21
2019-03-23T02:11:39.822Z,9.14
2019-03-23T02:12:39.810Z,9.21
2019-03-23T02:13:39.836Z,9.11
2019-03-23T02:14:39.855Z,9.18
2019-03-23T02:15:39.783Z,9.29
2019-03-23T02:16:39.776Z,9.21
2019-03-23T02:17:39.753Z,9.26
2019-03-23T02:18:39.775Z,9.29
2019-03-23T02:19:39.746Z,9.32
2019-03-23T02:20:39.750Z,9.37
2019-03-23T02:21:39.714Z,9.41
2019-03-23T02:22:39.697Z,9.34
2019-03-23T02:23:39.694Z,9.28
2019-03-23T02:24:39.690Z,9.40
2019-03-23T02:25:39.785Z,9.46
2019-03-23T02:26:39.719Z,9.44
2019-03-23T02:27:39.653Z,9.48
2019-03-23T02:28:39.646Z,9.48
2019-03-23T02:29:39.621Z,9.44
2019-03-23T02:30:39.644Z,9.51
2019-03-23T02:31:39.627Z,9.48
2019-03-23T02:32:39.653Z,9.43
2019-03-23T02:33:39.582Z,9.46
2019-03-23T02:34:39.571Z,9.54
2019-03-23T02:35:39.568Z,9.51
2019-03-23T02:36:39.586Z,9.58
2019-03-23T02:37:39.543Z,9.59
2019-03-23T02:38:39.583Z,9.64
2019-03-23T02:39:39.526Z,9.58
2019-03-23T02:40:39.532Z,9.44
2019-03-23T02:41:39.518Z,9.43
2019-03-23T02:42:39.516Z,9.43
2019-03-23T02:43:39.471Z,9.29
2019-03-23T02:44:39.478Z,9.34
2019-03-23T02:45:39.472Z,9.28
2019-03-23T02:46:39.442Z,9.21
2019-03-23T02:47:39.474Z,9.13
2019-03-23T02:48:39.417Z,9.11
2019-03-23T02:49:39.409Z,9.02
2019-03-23T02:50:39.409Z,9.06
2019-03-23T02:51:39.845Z,8.91
2019-03-23T02:52:39.420Z,8.92
2019-03-23T02:53:39.378Z,8.88
2019-03-23T02:54:39.359Z,8.92
2019-03-23T02:55:39.410Z,8.89
2019-03-23T02:56:39.336Z,8.94
2019-03-23T02:57:39.364Z,8.81
2019-03-23T02:58:39.349Z,8.69
2019-03-23T02:59:39.296Z,8.73
2019-03-23T03:00:39.287Z,8.69
2019-03-23T03:01:39.294Z,8.71
2019-03-23T03:02:39.274Z,8.74
2019-03-23T03:03:39.276Z,8.79
2019-03-23T03:04:39.260Z,8.73
2019-03-23T03:05:39.234Z,8.84
2019-03-23T03:06:39.240Z,8.69
2019-03-23T03:07:42.294Z,8.69
2019-03-23T03:08:39.205Z,8.74
2019-03-23T03:09:39.236Z,8.71
2019-03-23T03:10:39.176Z,8.73
2019-03-23T03:11:39.176Z,8.70
2019-03-23T03:12:39.209Z,8.78
2019-03-23T03:13:39.144Z,8.81
2019-03-23T03:14:39.129Z,8.73
2019-03-23T03:15:39.145Z,8.76
2019-03-23T03:16:39.115Z,8.78
2019-03-23T03:17:39.108Z,8.79
2019-03-23T03:18:39.104Z,8.73
2019-03-23T03:19:39.083Z,8.58
2019-03-23T03:20:39.132Z,8.71
2019-03-23T03:21:39.058Z,8.71
2019-03-23T03:22:39.044Z,8.71
2019-03-23T03:23:39.082Z,8.71
2019-03-23T03:24:39.023Z,8.64
2019-03-23T03:25:39.018Z,8.71
2019-03-23T03:26:39.022Z,8.64
2019-03-23T03:27:38.987Z,8.71
2019-03-23T03:28:38.978Z,8.64
2019-03-23T03:29:38.973Z,8.63
2019-03-23T03:30:38.993Z,8.60
2019-03-23T03:31:39.002Z,8.53
2019-03-23T03:32:38.931Z,8.49
2019-03-23T03:33:38.925Z,8.38
2019-03-23T03:34:38.919Z,8.44
2019-03-23T03:35:38.911Z,8.42
2019-03-23T03:36:38.926Z,8.41
2019-03-23T03:37:38.903Z,8.37
2019-03-23T03:38:38.871Z,8.38
2019-03-23T03:39:38.854Z,8.42
2019-03-23T03:40:38.850Z,8.42
2019-03-23T03:41:38.842Z,8.37
2019-03-23T03:42:38.881Z,8.38
2019-03-23T03:43:38.813Z,8.38
2019-03-23T03:44:38.814Z,8.38
2019-03-23T03:45:38.800Z,8.45
2019-03-23T03:46:38.793Z,8.48
2019-03-23T03:47:41.188Z,8.44
2019-03-23T03:48:38.756Z,8.44
2019-03-23T03:49:38.746Z,8.48
2019-03-23T03:50:38.740Z,8.44
2019-03-23T03:51:38.742Z,8.38
2019-03-23T03:52:38.743Z,8.37
2019-03-23T03:53:38.731Z,8.26
2019-03-23T03:54:38.723Z,8.27
2019-03-23T03:55:38.683Z,8.30
2019-03-23T03:56:38.673Z,8.30
2019-03-23T03:57:38.686Z,8.41
2019-03-23T03:58:38.692Z,8.36
2019-03-23T03:59:38.639Z,8.42
2019-03-23T04:00:38.643Z,8.45
2019-03-23T04:01:38.618Z,8.42
2019-03-23T04:02:38.606Z,8.44
2019-03-23T04:03:38.599Z,8.56
2019-03-23T04:04:38.603Z,8.53
2019-03-23T04:05:38.617Z,8.52
2019-03-23T04:06:39.189Z,8.46
2019-03-23T04:07:38.573Z,8.46
2019-03-23T04:08:38.545Z,8.51
2019-03-23T04:09:40.418Z,8.45
2019-03-23T04:10:38.532Z,8.44
2019-03-23T04:11:38.516Z,8.45
2019-03-23T04:12:38.497Z,8.46
2019-03-23T04:13:38.489Z,8.46
2019-03-23T04:14:38.516Z,8.46
2019-03-23T04:15:38.491Z,8.37
2019-03-23T04:16:38.457Z,8.36
2019-03-23T04:17:38.454Z,8.42
2019-03-23T04:18:38.434Z,8.30
2019-03-23T04:19:38.426Z,8.30
2019-03-23T04:20:38.453Z,8.31
2019-03-23T04:21:38.416Z,8.34
2019-03-23T04:22:38.398Z,8.34
2019-03-23T04:23:38.393Z,8.30
2019-03-23T04:24:38.378Z,8.34
2019-03-23T04:25:38.379Z,8.45
2019-03-23T04:26:39.427Z,8.30
2019-03-23T04:27:38.340Z,8.30
2019-03-23T04:28:38.344Z,8.30
2019-03-23T04:29:38.315Z,8.31
2019-03-23T04:30:38.309Z,8.30
2019-03-23T04:31:38.373Z,8.33
2019-03-23T04:32:38.293Z,8.33
2019-03-23T04:33:38.274Z,8.34
2019-03-23T04:34:38.304Z,8.36
2019-03-23T04:35:38.281Z,8.28
2019-03-23T04:36:38.277Z,8.36
2019-03-23T04:37:38.254Z,8.34
2019-03-23T04:38:38.225Z,8.33
2019-03-23T04:39:38.212Z,8.38
2019-03-23T04:40:38.198Z,8.27
2019-03-23T04:41:38.202Z,8.28
2019-03-23T04:42:38.219Z,8.37
2019-03-23T04:43:38.163Z,8.42
2019-03-23T04:44:38.148Z,8.37
2019-03-23T04:45:38.141Z,8.44
2019-03-23T04:46:38.146Z,8.38
2019-03-23T04:47:38.130Z,8.41
2019-03-23T04:48:38.131Z,8.42
2019-03-23T04:49:38.101Z,8.34
2019-03-23T04:50:38.085Z,8.30
2019-03-23T04:51:38.070Z,8.33
2019-03-23T04:52:38.067Z,8.27
2019-03-23T04:53:38.091Z,8.38
2019-03-23T04:54:39.006Z,8.38
2019-03-23T04:55:38.092Z,8.37
2019-03-23T04:56:38.024Z,8.30
2019-03-23T04:57:38.011Z,8.30
2019-03-23T04:58:38.023Z,8.28
2019-03-23T04:59:38.011Z,8.33
2019-03-23T05:00:37.977Z,8.27
2019-03-23T05:01:37.978Z,8.33
2019-03-23T05:02:37.963Z,8.27
2019-03-23T05:03:37.946Z,8.26
2019-03-23T05:04:37.985Z,8.27
2019-03-23T05:05:37.926Z,8.30
2019-03-23T05:06:37.915Z,8.30
2019-03-23T05:07:37.897Z,8.30
2019-03-23T05:08:37.898Z,8.30
2019-03-23T05:09:37.897Z,8.26
2019-03-23T05:10:37.864Z,8.31
2019-03-23T05:11:37.866Z,8.28
2019-03-23T05:12:37.844Z,8.30
2019-03-23T05:13:37.836Z,8.37
2019-03-23T05:14:37.862Z,8.34
2019-03-23T05:15:37.809Z,8.30
2019-03-23T05:16:37.805Z,8.26
2019-03-23T05:17:37.794Z,8.30
2019-03-23T05:18:37.797Z,8.37
2019-03-23T05:19:37.772Z,8.37
2019-03-23T05:20:37.784Z,8.44
2019-03-23T05:21:37.744Z,8.33
2019-03-23T05:22:37.736Z,8.30
2019-03-23T05:23:37.733Z,8.27
2019-03-23T05:24:37.719Z,8.30
2019-03-23T05:25:37.747Z,8.36
2019-03-23T05:26:37.697Z,8.33
2019-03-23T05:27:37.683Z,8.26
2019-03-23T05:28:37.678Z,8.27
2019-03-23T05:29:37.672Z,8.31
2019-03-23T05:30:37.649Z,8.30
2019-03-23T05:31:37.677Z,8.33
2019-03-23T05:32:37.633Z,8.28
2019-03-23T05:33:37.631Z,8.26
2019-03-23T05:34:37.610Z,8.28
2019-03-23T05:35:37.662Z,8.23
2019-03-23T05:36:37.641Z,8.16
2019-03-23T05:37:37.569Z,8.20
2019-03-23T05:38:44.333Z,8.16
2019-03-23T05:39:38.546Z,8.26
2019-03-23T05:40:37.534Z,8.24
2019-03-23T05:41:37.556Z,8.19
2019-03-23T05:42:37.522Z,8.18
2019-03-23T05:43:37.502Z,8.16
2019-03-23T05:44:37.490Z,8.19
2019-03-23T05:45:37.473Z,8.18
2019-03-23T05:46:37.482Z,8.12
2019-03-23T05:47:37.479Z,8.23
2019-03-23T05:48:37.443Z,8.16
2019-03-23T05:49:37.430Z,8.19
2019-03-23T05:50:37.425Z,8.16
2019-03-23T05:51:37.412Z,8.26
2019-03-23T05:52:37.435Z,8.30
2019-03-23T05:53:37.397Z,8.33
2019-03-23T05:54:37.398Z,8.36
2019-03-23T05:55:37.373Z,8.30
2019-03-23T05:56:37.365Z,8.30
2019-03-23T05:57:37.370Z,8.45
2019-03-23T05:58:37.354Z,8.44
2019-03-23T05:59:37.332Z,8.49
2019-03-23T06:00:37.319Z,8.53
2019-03-23T06:01:37.319Z,8.51
2019-03-23T06:02:37.294Z,8.53
2019-03-23T06:03:37.308Z,8.60
2019-03-23T06:04:37.278Z,8.63
2019-03-23T06:05:37.257Z,8.70
2019-03-23T06:06:37.249Z,8.67
2019-03-23T06:07:37.249Z,8.71
2019-03-23T06:08:37.245Z,8.82
2019-03-23T06:09:37.250Z,8.79
2019-03-23T06:10:37.204Z,8.82
2019-03-23T06:11:37.196Z,8.84
2019-03-23T06:12:37.192Z,8.94
2019-03-23T06:13:37.194Z,8.88
2019-03-23T06:14:37.195Z,8.95
2019-03-23T06:15:37.167Z,8.91
2019-03-23T06:16:37.146Z,9.00
2019-03-23T06:17:37.131Z,9.04
2019-03-23T06:18:37.120Z,9.10
2019-03-23T06:19:37.116Z,9.14
2019-03-23T06:20:37.119Z,9.11
2019-03-23T06:21:37.085Z,9.23
2019-03-23T06:22:37.076Z,9.23
2019-03-23T06:23:37.064Z,9.28
2019-03-23T06:24:37.051Z,9.34
2019-03-23T06:25:37.072Z,9.34
2019-03-23T06:26:37.047Z,9.47
2019-03-23T06:27:37.025Z,9.48
2019-03-23T06:28:37.014Z,9.48
2019-03-23T06:29:36.998Z,9.59
2019-03-23T06:30:36.994Z,9.58
2019-03-23T06:31:36.994Z,9.59
2019-03-23T06:32:36.968Z,9.62
2019-03-23T06:33:36.991Z,9.68
2019-03-23T06:34:36.946Z,9.66
2019-03-23T06:35:36.931Z,9.73
2019-03-23T06:36:36.950Z,9.65
2019-03-23T06:37:36.913Z,9.89
2019-03-23T06:38:36.899Z,9.87
2019-03-23T06:39:36.899Z,9.91
2019-03-23T06:40:36.893Z,9.97
2019-03-23T06:41:36.870Z,10.01
2019-03-23T06:42:36.886Z,10.09
2019-03-23T06:43:36.850Z,10.16
2019-03-23T06:44:36.835Z,10.17
2019-03-23T06:45:36.821Z,10.22
2019-03-23T06:46:36.814Z,10.22
2019-03-23T06:47:36.857Z,10.26
2019-03-23T06:48:36.787Z,10.44
2019-03-23T06:49:36.789Z,10.38
2019-03-23T06:50:36.771Z,10.49
2019-03-23T06:51:36.760Z,10.46
2019-03-23T06:52:36.778Z,10.49
2019-03-23T06:53:36.761Z,10.57
2019-03-23T06:54:36.728Z,10.61
2019-03-23T06:55:36.717Z,10.60
2019-03-23T06:56:36.712Z,10.68
2019-03-23T06:57:36.737Z,10.68
2019-03-23T06:58:38.601Z,10.71
2019-03-23T06:59:36.669Z,10.87
2019-03-23T07:00:36.671Z,10.82
2019-03-23T07:01:36.648Z,10.93
2019-03-23T07:02:36.643Z,10.99
2019-03-23T07:03:36.645Z,11.08
2019-03-23T07:04:36.612Z,11.07
2019-03-23T07:05:36.634Z,11.17
2019-03-23T07:06:36.598Z,11.22
2019-03-23T07:07:36.581Z,11.19
2019-03-23T07:08:36.601Z,11.19
2019-03-23T07:09:36.585Z,11.17
2019-03-23T07:10:36.550Z,11.17
2019-03-23T07:11:36.537Z,11.19
2019-03-23T07:12:36.543Z,11.32
2019-03-23T07:13:36.516Z,11.33
2019-03-23T07:14:36.532Z,11.45
2019-03-23T07:15:36.509Z,11.59
2019-03-23T07:16:36.508Z,11.51
2019-03-23T07:17:36.506Z,11.54
2019-03-23T07:18:36.476Z,11.57
2019-03-23T07:19:36.457Z,11.66
2019-03-23T07:20:36.461Z,11.77
2019-03-23T07:21:36.429Z,11.81
2019-03-23T07:22:36.437Z,11.88
2019-03-23T07:23:36.430Z,11.95
2019-03-23T07:24:36.412Z,12.13
2019-03-23T07:25:36.387Z,12.18
2019-03-23T07:26:36.374Z,12.27
2019-03-23T07:27:36.605Z,12.37
2019-03-23T07:28:36.356Z,12.45
2019-03-23T07:29:36.352Z,12.54
2019-03-23T07:30:36.328Z,12.60
2019-03-23T07:31:36.319Z,12.62
2019-03-23T07:32:36.312Z,12.76
2019-03-23T07:33:36.315Z,12.73
2019-03-23T07:34:36.284Z,12.86
2019-03-23T07:35:36.284Z,12.85
2019-03-23T07:36:36.263Z,12.87
2019-03-23T07:37:36.260Z,12.86
2019-03-23T07:38:36.277Z,12.90
2019-03-23T07:39:36.250Z,12.85
2019-03-23T07:40:36.220Z,12.90
2019-03-23T07:41:36.214Z,12.97
2019-03-23T07:42:36.197Z,12.97
2019-03-23T07:43:36.201Z,13.03
2019-03-23T07:44:36.208Z,13.05
2019-03-23T07:45:36.171Z,13.15
2019-03-23T07:46:36.159Z,13.11
2019-03-23T07:47:36.146Z,13.18
2019-03-23T07:48:36.131Z,13.08
2019-03-23T07:49:36.220Z,13.15
2019-03-23T07:50:36.130Z,13.16
2019-03-23T07:51:36.106Z,13.19
2019-03-23T07:52:36.093Z,13.25
2019-03-23T07:53:36.078Z,13.28
2019-03-23T07:54:36.069Z,13.30
2019-03-23T07:55:36.104Z,13.33
2019-03-23T07:56:36.049Z,13.42
2019-03-23T07:57:36.033Z,13.41
2019-03-23T07:58:36.028Z,13.42
2019-03-23T07:59:36.010Z,13.38
2019-03-23T08:00:36.047Z,13.52
2019-03-23T08:01:35.993Z,13.54
2019-03-23T08:02:35.981Z,13.56
2019-03-23T08:03:35.971Z,13.57
2019-03-23T08:04:35.960Z,13.60
2019-03-23T08:05:35.948Z,13.62
2019-03-23T08:06:35.978Z,13.68
2019-03-23T08:07:35.924Z,13.71
2019-03-23T08:08:35.934Z,13.71
2019-03-23T08:09:37.947Z,13.81
2019-03-23T08:10:35.892Z,13.92
2019-03-23T08:11:35.883Z,13.85
2019-03-23T08:12:35.881Z,13.79
2019-03-23T08:13:35.892Z,13.86
2019-03-23T08:14:36.248Z,13.99
2019-03-23T08:15:35.893Z,14.03
2019-03-23T08:16:35.836Z,14.03
2019-03-23T08:17:35.824Z,14.04
2019-03-23T08:18:35.809Z,14.08
2019-03-23T08:19:35.812Z,14.05
2019-03-23T08:20:35.791Z,14.10
2019-03-23T08:21:35.814Z,14.08
2019-03-23T08:22:35.767Z,14.25
2019-03-23T08:23:35.761Z,14.23
2019-03-23T08:24:35.779Z,14.23
2019-03-23T08:25:35.740Z,14.37
2019-03-23T08:26:35.725Z,14.36
2019-03-23T08:27:35.715Z,14.43
2019-03-23T08:28:35.697Z,14.45
2019-03-23T08:29:35.689Z,14.47
2019-03-23T08:30:35.692Z,14.53
2019-03-23T08:31:35.675Z,14.53
2019-03-23T08:32:35.658Z,14.60
2019-03-23T08:33:35.646Z,14.69
2019-03-23T08:34:35.653Z,14.73
2019-03-23T08:35:35.658Z,14.73
2019-03-23T08:36:35.622Z,14.78
2019-03-23T08:37:35.603Z,14.84
2019-03-23T08:38:35.586Z,14.94
2019-03-23T08:39:35.609Z,14.94
2019-03-23T08:40:35.912Z,15.06
2019-03-23T08:41:35.575Z,15.10
2019-03-23T08:42:35.554Z,14.99
2019-03-23T08:43:35.558Z,14.99
2019-03-23T08:44:35.542Z,15.10
2019-03-23T08:45:35.511Z,15.11
2019-03-23T08:46:35.524Z,15.14
2019-03-23T08:47:35.503Z,15.15
2019-03-23T08:48:35.481Z,15.11
2019-03-23T08:49:35.493Z,15.14
2019-03-23T08:50:35.458Z,15.24
2019-03-23T08:51:35.449Z,15.27
2019-03-23T08:52:35.443Z,15.29
2019-03-23T08:53:35.422Z,15.33
2019-03-23T08:54:35.452Z,15.35
2019-03-23T08:55:35.413Z,15.35
2019-03-23T08:56:37.365Z,15.36
2019-03-23T08:57:35.381Z,15.37
2019-03-23T08:58:35.373Z,15.42
2019-03-23T08:59:35.391Z,15.36
2019-03-23T09:00:35.386Z,15.44
2019-03-23T09:01:35.338Z,15.43
2019-03-23T09:02:35.344Z,15.47
2019-03-23T09:03:35.353Z,15.44
2019-03-23T09:04:35.345Z,15.46
2019-03-23T09:05:35.314Z,15.44
2019-03-23T09:06:35.284Z,15.54
2019-03-23T09:07:35.290Z,15.61
2019-03-23T09:08:35.304Z,15.59
2019-03-23T09:09:35.559Z,15.58
2019-03-23T09:10:35.241Z,15.57
2019-03-23T09:11:35.232Z,15.59
2019-03-23T09:12:35.231Z,15.58
2019-03-23T09:13:40.541Z,15.73
2019-03-23T09:14:36.238Z,15.68
2019-03-23T09:15:35.219Z,15.79
2019-03-23T09:16:35.234Z,15.84
2019-03-23T09:17:35.193Z,15.83
2019-03-23T09:18:35.150Z,15.88
2019-03-23T09:19:35.169Z,15.91
2019-03-23T09:20:35.181Z,15.88
2019-03-23T09:21:35.145Z,15.95
2019-03-23T09:22:35.104Z,16.01
2019-03-23T09:23:35.126Z,16.01
2019-03-23T09:24:35.110Z,15.97
2019-03-23T09:25:35.103Z,16.08
2019-03-23T09:26:35.112Z,16.17
2019-03-23T09:27:35.071Z,16.16
2019-03-23T09:28:35.042Z,16.20
2019-03-23T09:29:35.032Z,16.10
2019-03-23T09:30:35.037Z,16.24
2019-03-23T09:31:35.019Z,16.38
2019-03-23T09:32:35.012Z,16.43
2019-03-23T09:33:35.018Z,16.50
2019-03-23T09:34:34.983Z,16.36
2019-03-23T09:35:34.990Z,16.50
2019-03-23T09:36:34.967Z,16.51
2019-03-23T09:37:38.106Z,16.50
2019-03-23T09:38:34.953Z,16.54
2019-03-23T09:39:34.922Z,16.57
2019-03-23T09:40:34.916Z,16.57
2019-03-23T09:41:34.951Z,16.56
2019-03-23T09:42:34.897Z,16.53
2019-03-23T09:43:34.879Z,16.64
2019-03-23T09:44:34.885Z,16.66
2019-03-23T09:45:34.889Z,16.66
2019-03-23T09:46:34.893Z,16.72
2019-03-23T09:47:34.831Z,16.84
2019-03-23T09:48:34.829Z,16.79
2019-03-23T09:49:34.870Z,16.91
2019-03-23T09:50:34.852Z,16.86
2019-03-23T09:51:34.784Z,16.89
2019-03-23T09:52:34.772Z,16.91
2019-03-23T09:53:34.804Z,16.99
2019-03-23T09:54:34.772Z,16.89
2019-03-23T09:55:34.775Z,17.02
2019-03-23T09:56:34.753Z,16.97
2019-03-23T09:57:34.719Z,17.05
2019-03-23T09:58:34.706Z,17.04
2019-03-23T09:59:34.719Z,17.06
2019-03-23T10:00:34.708Z,16.93
2019-03-23T10:01:34.711Z,17.01
2019-03-23T10:02:34.674Z,17.11
2019-03-23T10:03:34.674Z,17.06
2019-03-23T10:04:34.689Z,17.14
2019-03-23T10:05:34.676Z,17.16
2019-03-23T10:06:34.661Z,17.15
2019-03-23T10:07:34.633Z,17.20
2019-03-23T10:08:34.625Z,17.22
2019-03-23T10:09:34.599Z,17.27
2019-03-23T10:10:34.587Z,17.16
2019-03-23T10:11:34.610Z,17.29
2019-03-23T10:12:34.583Z,17.29
2019-03-23T10:13:34.546Z,17.16
2019-03-23T10:14:34.538Z,17.15
2019-03-23T10:15:34.531Z,17.14
2019-03-23T10:16:34.547Z,17.26
2019-03-23T10:17:34.525Z,17.24
2019-03-23T10:18:34.507Z,17.29
2019-03-23T10:19:34.488Z,17.29
2019-03-23T10:20:34.467Z,17.31
2019-03-23T10:21:34.508Z,17.30
2019-03-23T10:22:34.451Z,17.33
2019-03-23T10:23:34.438Z,17.30
2019-03-23T10:24:34.422Z,17.46
2019-03-23T10:25:34.423Z,17.38
2019-03-23T10:26:34.423Z,17.46
2019-03-23T10:27:34.410Z,17.46
2019-03-23T10:28:34.386Z,17.54
2019-03-23T10:29:34.377Z,17.57
2019-03-23T10:30:34.357Z,17.49
2019-03-23T10:31:34.361Z,17.54
2019-03-23T10:32:34.367Z,17.45
2019-03-23T10:33:34.323Z,17.51
2019-03-23T10:34:34.337Z,17.63
2019-03-23T10:35:34.315Z,17.67
2019-03-23T10:36:34.300Z,17.68
2019-03-23T10:37:34.304Z,17.70
2019-03-23T10:38:34.294Z,17.64
2019-03-23T10:39:34.262Z,17.57
2019-03-23T10:40:34.280Z,17.60
2019-03-23T10:41:34.247Z,17.51
2019-03-23T10:42:34.226Z,17.59
2019-03-23T10:43:34.219Z,17.60
2019-03-23T10:44:34.203Z,17.48
2019-03-23T10:45:43.781Z,17.57
2019-03-23T10:46:35.180Z,17.63
2019-03-23T10:47:34.203Z,17.70
2019-03-23T10:48:34.174Z,17.72
2019-03-23T10:49:34.157Z,17.78
2019-03-23T10:50:34.160Z,17.85
2019-03-23T10:51:34.125Z,17.76
2019-03-23T10:52:34.155Z,17.82
2019-03-23T10:53:34.125Z,17.87
2019-03-23T10:54:34.103Z,17.90
2019-03-23T10:55:34.135Z,17.92
2019-03-23T10:56:34.075Z,17.98
2019-03-23T10:57:34.083Z,17.94
2019-03-23T10:58:34.047Z,17.89
2019-03-23T10:59:34.044Z,17.90
2019-03-23T11:00:34.030Z,17.83
2019-03-23T11:01:34.082Z,17.90
2019-03-23T11:02:34.014Z,17.76
2019-03-23T11:03:33.993Z,17.80
2019-03-23T11:04:33.993Z,17.82
2019-03-23T11:05:33.980Z,17.83
2019-03-23T11:06:33.995Z,17.82
2019-03-23T11:07:33.988Z,17.85
2019-03-23T11:08:33.946Z,17.87
2019-03-23T11:09:33.935Z,18.01
2019-03-23T11:10:41.585Z,17.95
2019-03-23T11:11:34.930Z,18.01
2019-03-23T11:12:33.895Z,18.04
2019-03-23T11:13:33.927Z,18.03
2019-03-23T11:14:33.919Z,17.97
2019-03-23T11:15:33.914Z,18.01
2019-03-23T11:16:33.895Z,18.13
2019-03-23T11:17:33.846Z,18.10
2019-03-23T11:18:33.854Z,18.04
2019-03-23T11:19:33.829Z,18.08
2019-03-23T11:20:33.810Z,18.10
2019-03-23T11:21:33.808Z,18.22
2019-03-23T11:22:33.872Z,18.19
2019-03-23T11:23:33.815Z,18.22
2019-03-23T11:24:33.770Z,18.31
2019-03-23T11:25:33.751Z,18.28
2019-03-23T11:26:33.740Z,18.29
2019-03-23T11:27:33.771Z,18.31
2019-03-23T11:28:33.755Z,18.19
2019-03-23T11:29:33.708Z,18.10
2019-03-23T11:30:33.701Z,18.16
2019-03-23T11:31:33.704Z,18.16
2019-03-23T11:32:33.687Z,18.20
2019-03-23T11:33:33.704Z,18.20
2019-03-23T11:34:33.671Z,18.23
2019-03-23T11:35:33.644Z,18.19
2019-03-23T11:36:33.636Z,18.20
2019-03-23T11:37:33.668Z,18.19
2019-03-23T11:38:33.678Z,18.22
2019-03-23T11:39:33.600Z,18.33
2019-03-23T11:40:33.611Z,18.33
2019-03-23T11:41:33.578Z,18.28
2019-03-23T11:42:33.589Z,18.31
2019-03-23T11:43:33.595Z,18.35
2019-03-23T11:44:33.563Z,18.28
2019-03-23T11:45:33.539Z,18.28
2019-03-23T11:46:33.555Z,18.23
2019-03-23T11:47:33.514Z,18.19
2019-03-23T11:48:33.501Z,18.29
2019-03-23T11:49:33.520Z,18.29
2019-03-23T11:50:33.492Z,18.34
2019-03-23T11:51:33.578Z,18.38
2019-03-23T11:52:33.476Z,18.37
2019-03-23T11:53:33.482Z,18.35
2019-03-23T11:54:33.434Z,18.40
2019-03-23T11:55:33.437Z,18.37
2019-03-23T11:56:33.436Z,18.35
2019-03-23T11:57:33.401Z,18.43
2019-03-23T11:58:33.419Z,18.40
2019-03-23T11:59:33.405Z,18.43
2019-03-23T12:00:33.377Z,18.31
2019-03-23T12:01:33.403Z,18.38
2019-03-23T12:02:33.363Z,18.45
2019-03-23T12:03:33.337Z,18.47
2019-03-23T12:04:33.355Z,18.45
2019-03-23T12:05:33.320Z,18.50
2019-03-23T12:06:33.330Z,18.41
2019-03-23T12:07:33.294Z,18.41
2019-03-23T12:08:33.305Z,18.43
2019-03-23T12:09:33.316Z,18.56
2019-03-23T12:10:33.283Z,18.56
2019-03-23T12:11:33.267Z,18.45
2019-03-23T12:12:33.255Z,18.52
2019-03-23T12:13:33.231Z,18.52
2019-03-23T12:14:33.232Z,18.52
2019-03-23T12:15:33.279Z,18.47
2019-03-23T12:16:33.197Z,18.53
2019-03-23T12:17:33.237Z,18.49
2019-03-23T12:18:33.177Z,18.43
2019-03-23T12:19:33.168Z,18.43
2019-03-23T12:20:33.193Z,18.43
2019-03-23T12:21:33.148Z,18.37
2019-03-23T12:22:33.129Z,18.31
2019-03-23T12:23:33.124Z,18.33
2019-03-23T12:24:33.127Z,18.33
2019-03-23T12:25:33.109Z,18.28
2019-03-23T12:26:33.114Z,18.16
2019-03-23T12:27:33.079Z,18.11
2019-03-23T12:28:33.068Z,18.20
2019-03-23T12:29:33.166Z,18.29
2019-03-23T12:30:33.043Z,18.28
2019-03-23T12:31:33.062Z,18.33
2019-03-23T12:32:33.026Z,18.35
2019-03-23T12:33:33.025Z,18.37
2019-03-23T12:34:33.003Z,18.31
2019-03-23T12:35:33.006Z,18.37
2019-03-23T12:36:32.985Z,18.40
2019-03-23T12:37:33.012Z,18.34
2019-03-23T12:38:32.962Z,18.35
2019-03-23T12:39:32.944Z,18.29
2019-03-23T12:40:32.932Z,18.28
2019-03-23T12:41:32.940Z,18.18
2019-03-23T12:42:32.965Z,18.16
2019-03-23T12:43:32.902Z,18.18
2019-03-23T12:44:32.893Z,18.20
2019-03-23T12:45:32.904Z,18.20
2019-03-23T12:46:32.909Z,18.08
2019-03-23T12:47:32.856Z,18.08
2019-03-23T12:48:32.863Z,17.97
2019-03-23T12:49:32.836Z,17.95
2019-03-23T12:50:32.844Z,17.85
2019-03-23T12:51:32.823Z,17.85
2019-03-23T12:52:32.805Z,17.87
2019-03-23T12:53:32.789Z,17.92
2019-03-23T12:54:32.789Z,17.94
2019-03-23T12:55:32.823Z,17.98
2019-03-23T12:56:32.761Z,18.03
2019-03-23T12:57:32.754Z,17.95
2019-03-23T12:58:32.744Z,17.97
2019-03-23T12:59:32.731Z,17.90
2019-03-23T13:00:32.750Z,17.97
2019-03-23T13:01:32.730Z,17.95
2019-03-23T13:02:32.690Z,17.98
2019-03-23T13:03:32.687Z,17.83